createdAt,value
2023-04-27T00:02:42.589Z,101935.28
2023-04-27T00:08:04.916Z,101945.78
2023-04-27T00:13:27.420Z,101941.75
2023-04-27T00:18:49.328Z,101949.44
2023-04-27T00:24:11.199Z,101937.09
2023-04-27T00:29:33.032Z,101947.81
2023-04-27T00:34:54.846Z,101941.84
2023-04-27T00:40:16.999Z,101937.56
2023-04-27T00:45:43.612Z,101941.41
2023-04-27T00:51:06.260Z,101941.03
2023-04-27T00:56:28.112Z,101938.69
2023-04-27T01:01:50.199Z,101953.88
2023-04-27T01:07:12.224Z,101946.84
2023-04-27T01:12:34.104Z,101934.06
2023-04-27T01:18:00.116Z,101927.88
2023-04-27T01:23:22.141Z,101935.56
2023-04-27T01:28:43.953Z,101933.25
2023-04-27T01:34:06.404Z,101926.22
2023-04-27T01:39:28.257Z,101923.06
2023-04-27T01:44:50.067Z,101925.19
2023-04-27T01:50:11.830Z,101916.88
2023-04-27T01:55:33.734Z,101914.56
2023-04-27T02:00:55.681Z,101917.78
2023-04-27T02:06:17.518Z,101918.88
2023-04-27T02:11:39.619Z,101911.81
2023-04-27T02:17:01.437Z,101894.56
2023-04-27T02:22:23.512Z,101894.56
2023-04-27T02:27:45.330Z,101899.72
2023-04-27T02:33:07.780Z,101900.78
2023-04-27T02:38:30.386Z,101906.78
2023-04-27T02:43:52.350Z,101903.38
2023-04-27T02:49:14.650Z,101904.66
2023-04-27T02:54:36.943Z,101897.44
2023-04-27T02:59:58.777Z,101891.28
2023-04-27T03:05:20.621Z,101907.50
2023-04-27T03:10:42.481Z,101910.28
2023-04-27T03:16:04.425Z,101912.41
2023-04-27T03:21:27.198Z,101909.84
2023-04-27T03:26:49.057Z,101913.69
2023-04-27T03:32:10.944Z,101923.09
2023-04-27T03:37:33.102Z,101922.22
2023-04-27T03:42:54.868Z,101912.22
2023-04-27T03:48:17.213Z,101929.06
2023-04-27T03:53:39.052Z,101924.59
2023-04-27T03:59:00.997Z,101928.44
2023-04-27T04:04:23.036Z,101923.13
2023-04-27T04:09:44.856Z,101922.50
2023-04-27T04:15:08.092Z,101930.81
2023-04-27T04:20:29.889Z,101916.31
2023-04-27T04:25:51.842Z,101919.50
2023-04-27T04:31:15.228Z,101923.56
2023-04-27T04:36:37.073Z,101927.63
2023-04-27T04:41:59.020Z,101938.72
2023-04-27T04:47:20.792Z,101938.06
2023-04-27T04:52:42.657Z,101939.97
2023-04-27T04:58:04.445Z,101945.75
2023-04-27T05:03:26.483Z,101944.88
2023-04-27T05:08:48.552Z,101950.19
2023-04-27T05:14:10.350Z,101958.47
2023-04-27T05:19:32.505Z,101962.75
2023-04-27T05:24:54.389Z,101951.50
2023-04-27T05:30:16.164Z,101959.31
2023-04-27T05:35:38.014Z,101950.25
2023-04-27T05:41:00.341Z,101957.88
2023-04-27T05:46:22.378Z,101963.81
2023-04-27T05:51:44.710Z,101968.94
2023-04-27T05:57:06.579Z,101966.41
2023-04-27T06:02:28.582Z,101963.38
2023-04-27T06:07:50.791Z,101958.47
2023-04-27T06:13:12.553Z,101967.63
2023-04-27T06:18:34.463Z,101957.38
2023-04-27T06:23:56.317Z,101956.50
2023-04-27T06:29:18.330Z,101965.09
2023-04-27T06:34:40.171Z,101960.84
2023-04-27T06:40:02.079Z,101965.53
2023-04-27T06:45:24.276Z,101959.53
2023-04-27T06:50:47.479Z,101959.03
2023-04-27T06:56:11.927Z,101955.88
2023-04-27T07:01:33.901Z,101955.75
2023-04-27T07:06:56.364Z,101966.75
2023-04-27T07:12:18.206Z,101970.66
2023-04-27T07:17:40.129Z,101965.66
2023-04-27T07:23:02.038Z,101948.44
2023-04-27T07:28:23.867Z,101947.13
2023-04-27T07:33:46.744Z,101948.81
2023-04-27T07:39:08.537Z,101950.16
2023-04-27T07:44:30.862Z,101953.38
2023-04-27T07:49:53.337Z,101949.16
2023-04-27T07:55:15.125Z,101953.22
2023-04-27T08:00:37.623Z,101941.72
2023-04-27T08:05:59.786Z,101937.25
2023-04-27T08:11:22.819Z,101942.19
2023-04-27T08:16:44.999Z,101935.41
2023-04-27T08:22:07.048Z,101933.09
2023-04-27T08:27:28.945Z,101932.47
2023-04-27T08:32:50.809Z,101925.22
2023-04-27T08:38:12.704Z,101921.81
2023-04-27T08:43:36.311Z,101923.91
2023-04-27T08:48:58.171Z,101923.34
2023-04-27T08:54:21.001Z,101929.59
2023-04-27T08:59:45.490Z,101916.00
2023-04-27T09:05:16.160Z,101919.31
2023-04-27T09:10:50.327Z,101923.28
2023-04-27T09:16:15.343Z,101926.69
2023-04-27T09:21:37.275Z,101925.00
2023-04-27T09:27:00.657Z,101931.63
2023-04-27T09:32:22.876Z,101909.28
2023-04-27T09:37:45.029Z,101902.94
2023-04-27T09:43:07.875Z,101902.09
2023-04-27T09:48:29.954Z,101904.44
2023-04-27T09:53:58.953Z,101900.69
2023-04-27T09:59:55.767Z,101917.06
2023-04-27T10:05:54.989Z,101906.56
2023-04-27T10:11:19.766Z,101890.53
2023-04-27T10:16:55.816Z,101891.84
2023-04-27T10:22:17.750Z,101883.97
2023-04-27T10:27:41.398Z,101880.34
2023-04-27T10:33:11.156Z,101865.09
2023-04-27T10:38:33.374Z,101860.94
2023-04-27T10:43:55.336Z,101861.78
2023-04-27T10:49:17.165Z,101858.16
2023-04-27T10:54:39.996Z,101848.97
2023-04-27T11:00:01.909Z,101853.22
2023-04-27T11:05:25.674Z,101846.31
2023-04-27T11:10:50.825Z,101840.72
2023-04-27T11:16:12.832Z,101834.59
2023-04-27T11:21:34.683Z,101831.56
2023-04-27T11:26:56.495Z,101829.38
2023-04-27T11:32:23.128Z,101829.47
2023-04-27T11:37:45.117Z,101818.81
2023-04-27T11:43:07.152Z,101816.97
2023-04-27T11:48:29.662Z,101823.09
2023-04-27T11:53:52.453Z,101823.56
2023-04-27T11:59:21.988Z,101815.66
2023-04-27T12:04:43.958Z,101821.56
2023-04-27T12:10:08.138Z,101817.25
2023-04-27T12:15:30.005Z,101802.53
2023-04-27T12:20:52.237Z,101788.09
2023-04-27T12:26:15.129Z,101784.81
2023-04-27T12:31:37.421Z,101786.50
2023-04-27T12:36:59.380Z,101778.88
2023-04-27T12:42:24.420Z,101781.13
2023-04-27T12:47:58.114Z,101782.00
2023-04-27T12:53:24.228Z,101769.47
2023-04-27T12:58:46.604Z,101764.19
2023-04-27T13:04:09.391Z,101757.22
2023-04-27T13:09:31.447Z,101740.75
2023-04-27T13:14:53.275Z,101746.09
2023-04-27T13:20:15.752Z,101741.41
2023-04-27T13:25:37.766Z,101747.34
2023-04-27T13:31:00.477Z,101736.59
2023-04-27T13:36:22.645Z,101725.84
2023-04-27T13:41:44.482Z,101723.41
2023-04-27T13:47:07.108Z,101706.63
2023-04-27T13:52:29.805Z,101694.53
2023-04-27T13:57:51.624Z,101684.34
2023-04-27T14:03:13.568Z,101680.59
2023-04-27T14:08:35.556Z,101664.41
2023-04-27T14:13:58.230Z,101661.72
2023-04-27T14:19:20.905Z,101655.47
2023-04-27T14:24:42.788Z,101668.63
2023-04-27T14:30:05.555Z,101655.13
2023-04-27T14:35:28.162Z,101651.00
2023-04-27T14:40:49.946Z,101655.47
2023-04-27T14:46:20.470Z,101656.06
2023-04-27T14:51:43.673Z,101658.59
2023-04-27T14:57:06.092Z,101650.25
2023-04-27T15:02:28.027Z,101644.34
2023-04-27T15:07:49.881Z,101640.47
2023-04-27T15:13:12.140Z,101635.75
2023-04-27T15:18:34.371Z,101631.88
2023-04-27T15:23:56.229Z,101618.56
2023-04-27T15:29:17.977Z,101608.28
2023-04-27T15:34:42.825Z,101593.28
2023-04-27T15:40:07.674Z,101595.56
2023-04-27T15:45:29.937Z,101596.38
2023-04-27T15:50:51.815Z,101591.81
2023-04-27T15:56:13.645Z,101571.91
2023-04-27T16:01:35.703Z,101573.13
2023-04-27T16:06:57.806Z,101556.91
2023-04-27T16:12:19.700Z,101541.22
2023-04-27T16:17:41.897Z,101544.94
2023-04-27T16:23:03.823Z,101542.47
2023-04-27T16:28:25.744Z,101537.00
2023-04-27T16:33:48.504Z,101515.84
2023-04-27T16:39:11.074Z,101515.59
2023-04-27T16:44:32.965Z,101525.56
2023-04-27T16:49:54.779Z,101520.09
2023-04-27T16:55:16.752Z,101504.31
2023-04-27T17:00:40.438Z,101506.88
2023-04-27T17:06:03.258Z,101497.16
2023-04-27T17:11:25.194Z,101493.63
2023-04-27T17:16:47.031Z,101490.88
2023-04-27T17:22:11.547Z,101484.91
2023-04-27T17:27:33.385Z,101486.63
2023-04-27T17:32:55.296Z,101496.50
2023-04-27T17:38:17.332Z,101491.31
2023-04-27T17:43:39.181Z,101491.72
2023-04-27T17:49:01.318Z,101474.09
2023-04-27T17:54:23.159Z,101470.03
2023-04-27T17:59:45.715Z,101462.88
2023-04-27T18:05:08.115Z,101484.66
2023-04-27T18:10:29.909Z,101491.31
2023-04-27T18:15:51.740Z,101493.59
2023-04-27T18:21:13.488Z,101488.75
2023-04-27T18:26:37.038Z,101491.75
2023-04-27T18:32:01.891Z,101490.28
2023-04-27T18:37:23.749Z,101498.97
2023-04-27T18:42:45.646Z,101497.03
2023-04-27T18:48:07.461Z,101488.19
2023-04-27T18:53:29.322Z,101479.94
2023-04-27T18:58:51.365Z,101468.06
2023-04-27T19:04:13.449Z,101480.03
2023-04-27T19:09:35.459Z,101475.56
2023-04-27T19:14:57.277Z,101470.09
2023-04-27T19:20:19.382Z,101471.31
2023-04-27T19:25:41.341Z,101477.53
2023-04-27T19:31:03.312Z,101465.66
2023-04-27T19:36:26.362Z,101465.41
2023-04-27T19:41:48.355Z,101462.63
2023-04-27T19:47:13.152Z,101454.78
2023-04-27T19:52:34.975Z,101453.69
2023-04-27T19:57:56.990Z,101459.84
2023-04-27T20:03:19.092Z,101459.09
2023-04-27T20:08:41.147Z,101443.31
2023-04-27T20:14:03.046Z,101440.59
2023-04-27T20:19:25.338Z,101441.19
2023-04-27T20:24:47.350Z,101428.97
2023-04-27T20:30:09.746Z,101421.72
2023-04-27T20:35:31.623Z,101410.25
2023-04-27T20:40:53.709Z,101401.81
2023-04-27T20:46:15.578Z,101391.22
2023-04-27T20:51:37.429Z,101388.41
2023-04-27T20:57:02.341Z,101388.16
2023-04-27T21:02:24.327Z,101375.00
2023-04-27T21:07:46.366Z,101359.66
2023-04-27T21:13:08.567Z,101358.47
2023-04-27T21:18:30.992Z,101342.28
2023-04-27T21:24:04.169Z,101348.28
2023-04-27T21:29:28.804Z,101342.78
2023-04-27T21:34:50.691Z,101348.53
2023-04-27T21:40:12.748Z,101332.00
2023-04-27T21:45:34.635Z,101326.09
2023-04-27T21:50:56.394Z,101311.00
2023-04-27T21:56:18.165Z,101314.31
2023-04-27T22:01:40.057Z,101303.06
2023-04-27T22:07:02.661Z,101289.66
2023-04-27T22:12:24.635Z,101287.41
2023-04-27T22:17:46.475Z,101276.19
2023-04-27T22:23:09.590Z,101263.88
2023-04-27T22:28:31.352Z,101259.06
2023-04-27T22:33:53.197Z,101255.94
2023-04-27T22:39:15.176Z,101260.31
2023-04-27T22:44:36.924Z,101250.56
2023-04-27T22:49:59.368Z,101239.09
2023-04-27T22:55:21.417Z,101236.81
2023-04-27T23:00:43.182Z,101223.41
2023-04-27T23:06:05.634Z,101232.28
2023-04-27T23:11:28.066Z,101217.19
2023-04-27T23:16:50.081Z,101212.13
2023-04-27T23:22:11.853Z,101213.47
2023-04-27T23:27:33.664Z,101211.19
2023-04-27T23:32:55.483Z,101197.78
2023-04-27T23:38:17.481Z,101192.25
2023-04-27T23:43:39.861Z,101180.78
2023-04-27T23:49:01.878Z,101194.94
2023-04-27T23:54:23.759Z,101183.25
2023-04-27T23:59:45.962Z,101176.25
